Time;durP1;ratioP1;P1;durP2;ratioP2;P2;SDS_P1;SDS_P2;PMS_P1;PMS_P2;Temp;Humidity;BMP_temperature;BMP_pressure;BME280_temperature;BME280_humidity;BME280_pressure;Samples;Min_cycle;Max_cycle;Signal;HPM_P1;HPM_P2
2021/12/11 10:00:31;;;;;;;7.00;2.25;;;13.60;99.90;;;;;;4993603;27;20417;-60
2021/12/11 10:03:00;;;;;;;15.43;3.35;;;13.80;99.90;;;;;;4969350;28;20056;-65
2021/12/11 10:05:34;;;;;;;11.20;3.10;;;13.70;99.90;;;;;;4993939;28;20426;-57
2021/12/11 10:08:38;;;;;;;6.35;2.25;;;13.70;99.90;;;;;;5011347;28;20479;-71
2021/12/11 10:11:14;;;;;;;11.38;3.47;;;13.70;99.90;;;;;;4995872;28;20049;-93
2021/12/11 10:13:55;;;;;;;2.05;0.88;;;13.70;99.90;;;;;;5028468;23;20069;-87
2021/12/11 10:16:27;;;;;;;6.68;1.17;;;13.70;99.90;;;;;;4974039;28;20030;-59
2021/12/11 10:18:54;;;;;;;6.55;1.45;;;13.70;99.90;;;;;;4991243;28;20034;-66
2021/12/11 10:21:33;;;;;;;8.95;1.02;;;13.70;99.90;;;;;;4991193;28;20030;-66
2021/12/11 10:24:03;;;;;;;3.22;0.75;;;13.70;99.90;;;;;;4991261;28;20541;-66
2021/12/11 10:26:32;;;;;;;5.68;1.20;;;13.70;99.90;;;;;;4991526;28;20406;-66
2021/12/11 10:29:04;;;;;;;5.78;0.93;;;13.80;99.90;;;;;;4991425;28;20023;-66
2021/12/11 10:31:35;;;;;;;2.38;0.98;;;13.80;99.90;;;;;;4991151;28;20034;-66
2021/12/11 10:34:06;;;;;;;6.18;1.60;;;13.80;99.90;;;;;;4991063;28;20081;-66
2021/12/11 10:36:37;;;;;;;2.58;1.63;;;13.80;99.90;;;;;;4991032;28;20029;-66
2021/12/11 10:39:07;;;;;;;15.60;2.35;;;13.90;99.90;;;;;;4990924;28;20495;-66
2021/12/11 10:41:35;;;;;;;3.13;1.08;;;13.90;99.90;;;;;;4991489;28;20057;-66
2021/12/11 10:44:29;;;;;;;18.85;5.38;;;13.90;99.90;;;;;;4991196;28;20045;-66
2021/12/11 10:47:11;;;;;;;17.17;4.72;;;13.90;99.90;;;;;;4993010;28;20039;-66
2021/12/11 10:49:39;;;;;;;12.07;3.78;;;13.80;99.90;;;;;;4991093;28;20034;-66
2021/12/11 10:52:24;;;;;;;14.77;6.22;;;13.80;99.90;;;;;;4991064;28;20049;-66
2021/12/11 10:54:54;;;;;;;7.25;3.13;;;13.80;99.90;;;;;;4991478;28;20034;-66
2021/12/11 10:57:23;;;;;;;10.18;2.85;;;13.70;99.90;;;;;;4990658;28;20105;-66
2021/12/11 10:59:56;;;;;;;10.80;1.45;;;13.70;99.90;;;;;;4991074;28;20549;-66
2021/12/11 11:02:27;;;;;;;2.35;0.63;;;13.80;99.90;;;;;;4990607;28;20026;-66
2021/12/11 11:05:13;;;;;;;4.93;1.55;;;13.70;99.90;;;;;;4990475;28;20026;-66
2021/12/11 11:07:42;;;;;;;4.45;0.93;;;13.70;99.90;;;;;;4990472;28;20042;-66
2021/12/11 11:10:32;;;;;;;6.88;1.15;;;13.70;99.90;;;;;;4984647;28;20460;-67
2021/12/11 11:13:03;;;;;;;12.02;1.10;;;13.70;99.90;;;;;;4977277;28;20058;-66
2021/12/11 11:15:33;;;;;;;5.20;1.40;;;13.70;99.90;;;;;;4977630;28;20047;-66
2021/12/11 11:18:01;;;;;;;5.88;1.50;;;13.60;99.90;;;;;;4977260;28;20030;-66
2021/12/11 11:20:33;;;;;;;13.55;2.00;;;13.70;99.90;;;;;;4977524;28;20051;-67
2021/12/11 11:23:00;;;;;;;6.68;1.10;;;13.80;99.90;;;;;;4992534;28;20027;-67
2021/12/11 11:25:31;;;;;;;3.30;0.68;;;13.90;99.90;;;;;;4977403;28;20506;-67
2021/12/11 11:28:03;;;;;;;4.10;1.33;;;13.90;99.90;;;;;;4977423;28;20077;-66
2021/12/11 11:30:37;;;;;;;5.10;1.77;;;14.00;99.90;;;;;;4977084;28;20034;-66
2021/12/11 11:33:07;;;;;;;13.88;1.65;;;14.00;99.90;;;;;;4977023;28;20110;-67
2021/12/11 11:35:42;;;;;;;5.20;1.25;;;14.00;99.90;;;;;;4976981;28;20400;-66
2021/12/11 11:38:16;;;;;;;6.70;1.25;;;14.00;99.90;;;;;;4976790;28;20050;-67
2021/12/11 11:40:46;;;;;;;7.07;1.77;;;13.90;99.90;;;;;;4976883;28;20038;-66
2021/12/11 11:43:15;;;;;;;10.50;1.88;;;13.80;99.90;;;;;;4976809;28;20034;-66
2021/12/11 11:45:43;;;;;;;9.93;2.53;;;13.60;99.90;;;;;;4977050;28;20533;-66
2021/12/11 11:48:10;;;;;;;8.40;2.17;;;13.60;99.90;;;;;;4976976;28;20050;-67
2021/12/11 11:50:42;;;;;;;8.23;2.42;;;13.60;99.90;;;;;;4976764;28;20026;-66
2021/12/11 11:53:10;;;;;;;9.85;3.08;;;13.60;99.90;;;;;;4976678;28;20026;-66
2021/12/11 11:55:46;;;;;;;7.68;2.53;;;13.60;99.90;;;;;;4976752;28;20023;-66
2021/12/11 11:58:13;;;;;;;10.48;3.40;;;13.70;99.90;;;;;;4977279;28;20117;-66
2021/12/11 12:00:57;;;;;;;6.93;3.35;;;13.70;99.90;;;;;;4976619;28;20035;-66
2021/12/11 12:03:26;;;;;;;4.78;2.17;;;13.70;99.90;;;;;;4976836;28;20423;-67
2021/12/11 12:05:57;;;;;;;6.22;2.10;;;13.70;99.90;;;;;;4976330;28;20453;-66
2021/12/11 12:08:24;;;;;;;7.55;2.47;;;13.60;99.90;;;;;;4976416;28;20031;-66
2021/12/11 12:10:56;;;;;;;4.85;1.83;;;13.70;99.90;;;;;;4976465;28;20469;-66
2021/12/11 12:13:27;;;;;;;5.07;2.10;;;13.70;99.90;;;;;;4976111;28;20074;-66
2021/12/11 12:16:05;;;;;;;4.88;2.15;;;13.70;99.90;;;;;;4975107;28;20031;-66
2021/12/11 12:18:33;;;;;;;14.45;5.05;;;13.80;99.90;;;;;;4976178;28;20064;-67
2021/12/11 12:21:04;;;;;;;25.88;8.32;;;13.80;99.90;;;;;;4976154;28;20037;-67
2021/12/11 12:23:33;;;;;;;56.60;10.95;;;13.80;99.90;;;;;;4975568;28;20031;-66
2021/12/11 12:26:10;;;;;;;12.50;3.22;;;13.90;99.90;;;;;;4976359;28;20480;-66
2021/12/11 12:28:37;;;;;;;9.18;2.72;;;14.00;99.90;;;;;;4990907;28;20392;-66
2021/12/11 12:31:10;;;;;;;3.92;2.03;;;14.10;99.90;;;;;;4976221;28;20093;-70
2021/12/11 12:33:37;;;;;;;5.70;1.65;;;14.00;99.90;;;;;;4975972;28;20488;-66
2021/12/11 12:36:08;;;;;;;4.05;1.23;;;14.00;99.90;;;;;;4976138;28;20031;-66
2021/12/11 12:38:36;;;;;;;6.25;1.08;;;13.90;99.90;;;;;;4975705;28;20089;-66
2021/12/11 12:41:12;;;;;;;4.32;1.40;;;13.90;99.90;;;;;;4975738;28;20027;-66
2021/12/11 12:46:16;;;;;;;7.85;2.55;;;14.20;99.90;;;;;;4976000;28;20081;-67
2021/12/11 12:48:43;;;;;;;8.50;3.17;;;14.20;99.90;;;;;;4976408;28;20022;-66
2021/12/11 12:51:14;;;;;;;8.50;2.13;;;14.20;99.90;;;;;;4975607;28;20018;-68
2021/12/11 12:53:44;;;;;;;10.25;2.45;;;14.00;99.90;;;;;;4975758;28;20431;-72
2021/12/11 12:56:46;;;;;;;4.22;1.25;;;14.00;99.90;;;;;;4975574;28;20365;-65
2021/12/11 12:59:35;;;;;;;6.63;1.88;;;14.00;99.90;;;;;;4934783;29;20059;-66
2021/12/11 13:02:17;;;;;;;2.83;1.65;;;14.30;99.90;;;;;;4934942;29;20028;-66
2021/12/11 13:04:56;;;;;;;5.07;1.55;;;14.50;99.90;;;;;;4934433;29;20040;-66
2021/12/11 13:07:24;;;;;;;4.45;1.05;;;14.40;99.90;;;;;;4918145;29;20560;-67
2021/12/11 13:09:59;;;;;;;3.13;1.00;;;14.40;99.90;;;;;;4934360;29;20087;-66
2021/12/11 13:12:40;;;;;;;4.15;0.70;;;14.30;99.90;;;;;;4919016;29;20052;-67
2021/12/11 13:15:46;;;;;;;1.65;0.88;;;14.10;99.90;;;;;;4934635;29;20063;-67
2021/12/11 13:18:18;;;;;;;7.40;1.00;;;14.00;99.90;;;;;;4934458;29;20477;-66
2021/12/11 13:21:02;;;;;;;3.05;1.38;;;14.00;99.90;;;;;;4934972;29;20083;-67
2021/12/11 13:23:34;;;;;;;5.32;1.70;;;13.80;99.90;;;;;;4934718;29;20481;-67
2021/12/11 13:26:05;;;;;;;4.93;1.80;;;13.80;99.90;;;;;;4934565;29;20031;-66
2021/12/11 13:28:50;;;;;;;10.30;1.90;;;13.70;99.90;;;;;;4934466;29;20040;-66
2021/12/11 13:31:22;;;;;;;5.00;1.63;;;13.70;99.90;;;;;;4934386;29;20031;-66
2021/12/11 13:33:50;;;;;;;5.45;1.73;;;13.70;99.90;;;;;;4934227;29;20035;-66
2021/12/11 13:36:26;;;;;;;8.05;1.92;;;13.50;99.90;;;;;;4959654;28;20042;-66
2021/12/11 13:38:56;;;;;;;7.50;1.13;;;13.40;99.90;;;;;;4974741;28;20049;-66
2021/12/11 13:41:32;;;;;;;2.75;1.25;;;13.50;99.90;;;;;;4975052;28;20074;-66
2021/12/11 13:43:59;;;;;;;5.90;2.85;;;13.50;99.90;;;;;;4975105;28;20050;-67
2021/12/11 13:46:26;;;;;;;2.88;1.05;;;13.40;99.90;;;;;;4975087;28;20023;-67
2021/12/11 13:48:53;;;;;;;5.38;2.13;;;13.30;99.90;;;;;;4975005;28;20054;-66
2021/12/11 13:51:25;;;;;;;6.38;2.60;;;13.20;99.90;;;;;;4989609;28;20054;-66
2021/12/11 13:53:54;;;;;;;7.68;3.08;;;13.10;99.90;;;;;;4974545;28;20035;-66
2021/12/11 13:56:25;;;;;;;16.45;3.35;;;13.10;99.90;;;;;;4974594;28;20043;-66
2021/12/11 13:58:53;;;;;;;4.85;1.85;;;13.00;99.90;;;;;;4974496;28;20146;-66
2021/12/11 14:01:31;;;;;;;9.98;2.72;;;12.90;99.90;;;;;;4974520;28;20023;-66
2021/12/11 14:03:59;;;;;;;4.88;2.03;;;12.80;99.90;;;;;;4974559;28;20035;-66
2021/12/11 14:06:27;;;;;;;9.98;2.90;;;12.80;99.90;;;;;;4974516;28;20030;-66
2021/12/11 14:09:05;;;;;;;9.88;2.45;;;12.90;99.90;;;;;;4974524;28;20435;-66
2021/12/11 14:11:38;;;;;;;6.25;2.08;;;12.80;99.90;;;;;;4974822;28;20421;-65
2021/12/11 14:14:08;;;;;;;7.63;1.73;;;12.80;99.90;;;;;;4974282;28;20051;-65
2021/12/11 14:16:34;;;;;;;5.15;1.50;;;12.90;99.90;;;;;;4974435;28;20038;-65
2021/12/11 14:19:02;;;;;;;6.13;1.15;;;13.00;99.90;;;;;;4974363;28;20084;-66
2021/12/11 14:21:28;;;;;;;2.15;0.70;;;13.10;99.90;;;;;;4974400;28;20146;-65
2021/12/11 14:23:55;;;;;;;6.47;0.90;;;13.10;99.90;;;;;;4974292;28;20039;-65
2021/12/11 14:26:23;;;;;;;2.90;1.27;;;13.10;99.90;;;;;;4974720;28;20102;-65
2021/12/11 14:28:53;;;;;;;4.90;2.20;;;13.10;99.90;;;;;;4974317;28;20607;-66
2021/12/11 14:31:23;;;;;;;4.40;1.50;;;13.20;99.90;;;;;;4974553;28;20038;-65
2021/12/11 14:33:51;;;;;;;5.88;1.20;;;13.00;99.90;;;;;;4974231;28;20023;-65
2021/12/11 14:36:23;;;;;;;8.23;1.90;;;12.90;99.90;;;;;;4973104;28;20435;-65
2021/12/11 14:38:53;;;;;;;4.43;1.45;;;12.80;99.90;;;;;;4974195;28;20034;-66
2021/12/11 14:41:21;;;;;;;6.78;2.00;;;12.80;99.90;;;;;;4974585;28;20441;-67
2021/12/11 14:43:51;;;;;;;8.68;2.40;;;12.80;99.90;;;;;;4989120;28;20054;-65
2021/12/11 14:46:17;;;;;;;8.57;2.35;;;12.80;99.90;;;;;;4977032;28;20031;-62
2021/12/11 14:48:44;;;;;;;4.82;2.15;;;12.80;99.90;;;;;;4977688;28;20503;-63
2021/12/11 14:51:18;;;;;;;8.25;3.40;;;12.70;99.90;;;;;;4977757;28;20030;-63
2021/12/11 14:53:50;;;;;;;4.30;1.90;;;12.60;99.90;;;;;;4977678;28;20499;-63
2021/12/11 14:56:27;;;;;;;1.30;1.20;;;12.40;99.90;;;;;;4977659;28;20042;-63
2021/12/11 14:58:58;;;;;;;5.38;2.38;;;12.30;99.90;;;;;;4977553;28;20378;-63
2021/12/11 15:01:31;;;;;;;2.80;1.63;;;12.20;99.90;;;;;;4977494;28;20547;-63
2021/12/11 15:04:02;;;;;;;4.95;1.13;;;12.00;99.90;;;;;;4977819;28;20481;-63
2021/12/11 15:06:29;;;;;;;8.10;2.00;;;11.90;99.90;;;;;;4977483;28;20069;-63
2021/12/11 15:08:55;;;;;;;7.00;2.20;;;11.70;99.90;;;;;;4977758;28;20030;-63
2021/12/11 15:11:26;;;;;;;6.82;2.30;;;11.70;99.90;;;;;;4977339;28;20034;-63
2021/12/11 15:13:56;;;;;;;8.82;2.05;;;11.60;99.90;;;;;;4977124;28;20053;-64
2021/12/11 15:16:24;;;;;;;5.93;2.90;;;11.50;99.90;;;;;;4975953;28;20031;-63
2021/12/11 15:18:56;;;;;;;6.80;3.35;;;11.40;99.90;;;;;;4977528;28;20038;-63
2021/12/11 15:21:26;;;;;;;8.88;3.28;;;11.40;99.90;;;;;;4977295;28;20078;-63
2021/12/11 15:23:58;;;;;;;6.05;2.78;;;11.40;99.90;;;;;;4977213;28;20027;-63
2021/12/11 15:26:27;;;;;;;8.30;3.60;;;11.40;99.90;;;;;;4977370;28;20049;-63
2021/12/11 15:28:55;;;;;;;12.93;3.67;;;11.40;99.90;;;;;;4977371;28;20027;-66
2021/12/11 15:31:31;;;;;;;6.05;3.17;;;11.30;99.90;;;;;;4977094;28;20058;-65
2021/12/11 15:34:01;;;;;;;11.10;4.22;;;11.40;99.90;;;;;;4977238;28;20041;-65
2021/12/11 15:36:33;;;;;;;12.68;3.80;;;11.30;99.90;;;;;;4977325;28;20109;-65
2021/12/11 15:39:20;;;;;;;17.52;3.92;;;11.30;99.90;;;;;;4975535;28;20134;-65
2021/12/11 15:41:48;;;;;;;7.95;3.85;;;11.30;99.90;;;;;;4976892;28;20031;-65
2021/12/11 15:44:16;;;;;;;11.52;4.30;;;11.30;99.90;;;;;;4976708;28;20046;-65
2021/12/11 15:46:43;;;;;;;12.43;5.97;;;11.30;99.90;;;;;;4976756;28;20050;-65
2021/12/11 15:49:10;;;;;;;15.48;7.38;;;11.20;99.90;;;;;;4977711;28;20034;-66
2021/12/11 15:51:40;;;;;;;19.90;8.40;;;11.20;99.90;;;;;;4976681;28;20019;-66
2021/12/11 15:54:11;;;;;;;13.52;6.35;;;11.00;99.90;;;;;;4976652;28;20035;-67
2021/12/11 15:56:41;;;;;;;13.55;5.80;;;11.00;99.90;;;;;;4976804;28;20026;-67
2021/12/11 15:59:08;;;;;;;20.73;4.60;;;11.00;99.90;;;;;;4977049;28;20041;-67
2021/12/11 16:01:39;;;;;;;9.82;3.17;;;11.00;99.90;;;;;;4976473;28;20026;-67
2021/12/11 16:04:10;;;;;;;16.77;4.07;;;11.00;99.90;;;;;;4976463;28;20038;-67
2021/12/11 16:06:42;;;;;;;9.32;3.85;;;10.90;99.90;;;;;;4976827;28;20030;-66
2021/12/11 16:09:14;;;;;;;8.05;2.88;;;10.90;99.90;;;;;;4977006;28;20026;-66
2021/12/11 16:11:43;;;;;;;8.35;2.60;;;10.90;99.90;;;;;;4976275;28;20085;-66
2021/12/11 16:14:13;;;;;;;7.60;3.55;;;10.90;99.90;;;;;;4976128;28;20043;-66
2021/12/11 16:16:44;;;;;;;8.38;2.35;;;10.80;99.90;;;;;;4976104;28;20049;-66
2021/12/11 16:19:12;;;;;;;7.13;2.35;;;10.80;99.90;;;;;;4976020;28;20515;-66
2021/12/11 16:21:41;;;;;;;4.03;1.92;;;10.90;99.90;;;;;;4976418;28;20023;-66
2021/12/11 16:24:11;;;;;;;13.90;3.67;;;10.90;99.90;;;;;;4976122;28;20035;-66
2021/12/11 16:26:43;;;;;;;12.18;4.07;;;10.90;99.90;;;;;;4976088;28;20058;-66
2021/12/11 16:29:11;;;;;;;14.32;4.40;;;10.90;99.90;;;;;;4974897;28;20031;-66
2021/12/11 16:31:41;;;;;;;14.77;5.65;;;10.90;99.90;;;;;;4975106;28;20023;-66
2021/12/11 16:34:10;;;;;;;14.95;5.32;;;10.90;99.90;;;;;;4976691;28;20058;-66
2021/12/11 16:36:41;;;;;;;15.00;6.55;;;10.90;99.90;;;;;;4976038;28;20078;-66
2021/12/11 16:39:09;;;;;;;22.23;7.05;;;10.90;99.90;;;;;;4975579;28;20043;-67
2021/12/11 16:41:50;;;;;;;20.48;7.35;;;10.90;99.90;;;;;;4975966;28;20073;-66
2021/12/11 16:44:20;;;;;;;16.88;6.03;;;10.90;99.90;;;;;;4976032;28;20122;-67
2021/12/11 16:46:54;;;;;;;22.10;8.77;;;10.90;99.90;;;;;;4990806;28;20026;-67
2021/12/11 16:49:27;;;;;;;18.73;7.90;;;10.90;99.90;;;;;;4974248;28;20388;-66
2021/12/11 16:51:56;;;;;;;17.67;7.30;;;10.90;99.90;;;;;;4973981;28;20113;-66
2021/12/11 16:54:28;;;;;;;14.80;6.57;;;10.90;99.90;;;;;;4974241;28;20480;-67
2021/12/11 16:56:55;;;;;;;14.80;5.53;;;10.90;99.90;;;;;;4974628;28;20031;-66
2021/12/11 16:59:23;;;;;;;16.63;6.13;;;10.90;99.90;;;;;;4974663;28;20034;-66
2021/12/11 17:01:51;;;;;;;14.68;6.30;;;10.80;99.90;;;;;;4975576;28;20053;-67
2021/12/11 17:04:20;;;;;;;21.42;7.75;;;10.80;99.90;;;;;;4973829;28;20075;-67
2021/12/11 17:07:02;;;;;;;35.33;8.70;;;10.90;99.90;;;;;;4974934;28;20054;-68
2021/12/11 17:09:35;;;;;;;19.25;7.88;;;10.90;99.90;;;;;;4973056;28;20062;-67
2021/12/11 17:12:17;;;;;;;16.20;8.13;;;10.90;99.90;;;;;;4971326;28;20117;-67
2021/12/11 17:14:46;;;;;;;20.67;7.05;;;10.90;99.90;;;;;;4971721;28;20034;-67
2021/12/11 17:17:14;;;;;;;18.33;8.02;;;10.90;99.90;;;;;;4973553;28;20029;-67
2021/12/11 17:19:46;;;;;;;16.33;7.55;;;10.80;99.90;;;;;;4973520;28;20488;-67
2021/12/11 17:22:20;;;;;;;20.58;10.23;;;10.70;99.90;;;;;;4972371;28;20030;-67
2021/12/11 17:25:25;;;;;;;24.07;9.47;;;10.70;99.90;;;;;;4979232;28;20076;-94
2021/12/11 17:27:54;;;;;;;29.48;11.88;;;10.60;99.90;;;;;;4917473;29;20036;-91
2021/12/11 17:30:33;;;;;;;37.80;15.27;;;10.70;99.90;;;;;;5035940;23;20141;-93
2021/12/11 17:33:06;;;;;;;26.63;12.00;;;10.70;99.90;;;;;;4998106;23;20072;-93
2021/12/11 17:35:53;;;;;;;25.95;9.93;;;10.80;99.90;;;;;;5027430;28;20070;-93
2021/12/11 17:38:34;;;;;;;;;;;;;;;;;;;;;
2021/12/11 17:44:04;;;;;;;17.85;7.30;;;10.60;99.90;;;;;;5160803;23;20058;-92
2021/12/11 17:46:56;;;;;;;19.10;7.63;;;10.50;99.90;;;;;;4977921;28;20034;-93
2021/12/11 17:55:11;;;;;;;23.27;9.90;;;10.40;99.90;;;;;;4974421;28;20136;-91
2021/12/11 17:57:38;;;;;;;20.40;7.88;;;10.40;99.90;;;;;;4958318;28;20505;-90
2021/12/11 18:00:11;;;;;;;22.90;8.02;;;10.40;99.90;;;;;;4958197;28;20041;-92
2021/12/11 18:03:03;;;;;;;23.40;10.02;;;10.50;99.90;;;;;;4954889;29;20098;-93
2021/12/11 18:05:38;;;;;;;25.38;11.18;;;10.50;99.90;;;;;;4938770;29;20481;-92
2021/12/11 18:08:06;;;;;;;;;;;10.50;99.90;;;;;;4931560;29;20040;-92
2021/12/11 18:10:43;;;;;;;17.48;9.13;;;10.50;99.90;;;;;;4938458;29;19910;-91
2021/12/11 18:13:18;;;;;;;17.80;8.30;;;10.50;99.90;;;;;;4915935;29;20031;-90
2021/12/11 18:15:54;;;;;;;18.38;8.48;;;10.50;99.90;;;;;;4938613;29;20117;-90
2021/12/11 18:18:29;;;;;;;15.88;7.95;;;10.50;99.90;;;;;;4938335;29;20035;-91
2021/12/11 18:21:09;;;;;;;22.02;10.38;;;10.40;99.90;;;;;;4940676;29;20406;-91
2021/12/11 18:23:39;;;;;;;16.95;8.55;;;10.50;99.90;;;;;;4942126;29;20128;-92
2021/12/11 18:26:15;;;;;;;21.98;8.77;;;10.40;99.90;;;;;;4918979;29;20031;-92
2021/12/11 18:28:43;;;;;;;22.52;9.02;;;10.40;99.90;;;;;;4926314;29;20057;-91
2021/12/11 18:31:14;;;;;;;29.90;12.80;;;10.40;99.90;;;;;;4926065;29;20502;-91
2021/12/11 18:33:42;;;;;;;15.00;6.07;;;10.40;99.90;;;;;;4926222;29;20129;-90
2021/12/11 18:36:14;;;;;;;8.68;4.32;;;10.40;99.90;;;;;;4926236;29;20031;-90
2021/12/11 18:38:41;;;;;;;16.92;8.65;;;10.30;99.90;;;;;;4941872;29;20065;-90
2021/12/11 18:41:20;;;;;;;16.80;8.15;;;10.20;99.90;;;;;;4938943;29;20035;-91
2021/12/11 18:43:48;;;;;;;29.45;11.05;;;10.20;99.90;;;;;;4959806;28;20548;-92
2021/12/11 18:46:20;;;;;;;13.50;6.05;;;10.30;99.90;;;;;;4977612;28;20626;-91
2021/12/11 18:48:48;;;;;;;19.40;8.90;;;10.20;99.90;;;;;;4961652;28;20039;-93
2021/12/11 18:51:24;;;;;;;7.40;4.90;;;10.20;99.90;;;;;;4961888;28;20022;-91
2021/12/11 18:53:55;;;;;;;8.82;5.38;;;10.20;99.90;;;;;;4974190;28;20057;-93
2021/12/11 18:56:25;;;;;;;11.73;6.53;;;10.20;99.90;;;;;;4965319;28;20396;-89
2021/12/11 18:58:56;;;;;;;21.40;10.02;;;10.20;99.90;;;;;;4964764;28;20117;-92
2021/12/11 19:01:58;;;;;;;45.35;20.35;;;10.30;99.90;;;;;;4997200;28;20038;-90
2021/12/11 19:04:30;;;;;;;101.25;36.88;;;10.30;99.90;;;;;;4978624;28;20038;-91
2021/12/11 19:07:01;;;;;;;48.00;18.60;;;10.30;99.90;;;;;;4996804;28;20049;-91
2021/12/11 19:09:30;;;;;;;29.75;14.50;;;10.30;99.90;;;;;;4992506;28;20037;-90
2021/12/11 19:12:02;;;;;;;23.60;12.40;;;10.30;99.90;;;;;;4997195;28;20026;-92
2021/12/11 19:14:32;;;;;;;54.63;28.10;;;10.20;99.90;;;;;;4996881;28;20030;-90
2021/12/11 19:16:59;;;;;;;62.33;24.17;;;10.20;99.90;;;;;;5002362;28;20573;-91
2021/12/11 19:19:27;;;;;;;27.08;13.27;;;10.20;99.90;;;;;;5021042;28;20026;-91
2021/12/11 19:22:04;;;;;;;32.42;12.27;;;10.20;99.90;;;;;;5021421;28;20042;-92
2021/12/11 19:24:32;;;;;;;26.83;11.63;;;10.00;99.90;;;;;;5008485;28;20035;-91
2021/12/11 19:27:01;;;;;;;27.13;11.75;;;10.10;99.90;;;;;;4999280;28;20027;-90
2021/12/11 19:29:38;;;;;;;24.17;9.93;;;10.00;99.90;;;;;;4996754;28;20471;-91
2021/12/11 19:32:08;;;;;;;32.42;7.72;;;10.10;99.90;;;;;;4963628;28;20030;-89
2021/12/11 19:34:36;;;;;;;16.20;8.35;;;10.10;99.90;;;;;;4964002;28;20120;-92
2021/12/11 19:37:05;;;;;;;28.95;12.02;;;10.10;99.90;;;;;;4960569;28;20095;-90
2021/12/11 19:39:40;;;;;;;21.88;9.27;;;10.10;99.90;;;;;;4992313;28;20042;-92
2021/12/11 19:42:10;;;;;;;18.85;10.20;;;10.20;99.90;;;;;;4998044;28;20502;-93
2021/12/11 19:44:39;;;;;;;30.55;9.90;;;10.20;99.90;;;;;;4999480;28;20043;-93
2021/12/11 19:47:09;;;;;;;24.65;10.43;;;10.10;99.90;;;;;;4966121;28;20430;-91
2021/12/11 19:50:01;;;;;;;26.55;9.35;;;10.10;99.90;;;;;;5021953;23;20125;-93
2021/12/11 19:52:32;;;;;;;20.30;7.25;;;10.10;99.90;;;;;;4953504;29;20505;-92
2021/12/11 19:54:59;;;;;;;23.98;11.30;;;10.10;99.90;;;;;;4996855;28;20042;-92
2021/12/11 19:57:29;;;;;;;24.63;8.50;;;10.00;99.90;;;;;;4999941;28;20022;-94
2021/12/11 20:00:10;;;;;;;23.17;11.23;;;10.00;99.90;;;;;;5016301;28;20104;-92
2021/12/11 20:02:41;;;;;;;;;;;9.90;99.90;;;;;;5000102;28;20026;-91
2021/12/11 20:05:13;;;;;;;22.60;11.60;;;9.80;99.90;;;;;;4998982;28;19917;-93
2021/12/11 20:07:45;;;;;;;44.88;17.70;;;9.80;99.90;;;;;;4999771;28;20025;-93
2021/12/11 20:10:19;;;;;;;42.30;18.20;;;9.60;99.90;;;;;;4998529;28;20033;-93
2021/12/11 20:13:07;;;;;;;61.28;23.35;;;9.60;99.90;;;;;;5001142;28;20030;-92
2021/12/11 20:15:58;;;;;;;83.32;30.85;;;9.50;99.90;;;;;;4999015;28;20072;-92
2021/12/11 20:18:34;;;;;;;124.90;38.13;;;9.50;99.90;;;;;;4994189;28;20490;-92
2021/12/11 20:21:18;;;;;;;52.35;22.58;;;9.50;99.90;;;;;;4998601;28;20044;-93
2021/12/11 20:23:48;;;;;;;39.60;16.85;;;9.50;99.90;;;;;;4998736;28;20030;-90
2021/12/11 20:26:17;;;;;;;58.55;22.13;;;9.40;99.90;;;;;;4998726;28;20491;-89
2021/12/11 20:28:48;;;;;;;34.63;15.90;;;9.40;99.90;;;;;;4999133;28;20391;-92
2021/12/11 20:31:38;;;;;;;29.83;12.55;;;9.40;99.90;;;;;;4999568;28;20458;-93
2021/12/11 20:37:19;;;;;;;22.40;11.07;;;9.30;99.90;;;;;;5118864;23;20093;-92
2021/12/11 20:40:39;;;;;;;27.90;13.20;;;9.20;99.90;;;;;;5000372;28;20061;-94
2021/12/11 20:43:43;;;;;;;40.53;14.57;;;9.20;99.90;;;;;;4949358;29;20057;-93
2021/12/11 20:46:11;;;;;;;33.83;12.73;;;9.20;99.90;;;;;;4942082;29;20091;-92
2021/12/11 20:48:58;;;;;;;35.83;14.93;;;9.10;99.90;;;;;;4925778;29;20038;-92
2021/12/11 20:54:06;;;;;;;54.95;18.02;;;9.00;99.90;;;;;;5297337;22;20066;-92
2021/12/11 20:56:59;;;;;;;46.85;14.48;;;9.00;99.90;;;;;;5104040;23;20029;-93
2021/12/11 20:59:55;;;;;;;27.83;12.18;;;8.90;99.90;;;;;;5031247;23;20396;-92
2021/12/11 21:03:34;;;;;;;29.00;11.15;;;8.80;99.90;;;;;;5365912;23;20077;-93
2021/12/11 21:06:29;;;;;;;17.15;9.70;;;8.80;99.90;;;;;;5018236;23;20122;-92
2021/12/11 21:09:26;;;;;;;36.95;11.02;;;8.80;99.90;;;;;;4999798;28;20034;-92
2021/12/11 21:12:08;;;;;;;35.33;13.95;;;8.80;99.90;;;;;;4999031;28;20058;-92
2021/12/11 21:33:55;;;;;;;19.83;10.00;;;8.60;99.90;;;;;;4972004;28;20034;-91
2021/12/11 21:37:18;;;;;;;30.67;12.82;;;8.60;99.90;;;;;;5064982;23;20022;-92
2021/12/11 21:47:17;;;;;;;25.95;11.73;;;8.50;99.90;;;;;;5300839;23;20037;-93
2021/12/11 21:53:33;;;;;;;27.75;11.88;;;8.40;99.90;;;;;;4938836;29;20031;-92
2021/12/11 21:56:05;;;;;;;29.15;12.70;;;8.30;99.90;;;;;;4915060;29;20038;-91
2021/12/11 21:58:50;;;;;;;36.55;14.40;;;8.20;99.90;;;;;;4905002;29;20059;-93
2021/12/11 22:04:32;;;;;;;37.08;14.82;;;8.20;99.90;;;;;;5063489;22;20480;-92
2021/12/11 22:18:06;;;;;;;22.25;9.52;;;8.30;99.90;;;;;;4958100;28;20650;-91
2021/12/11 22:20:42;;;;;;;18.98;9.35;;;8.20;99.90;;;;;;4940550;29;20485;-92
2021/12/11 22:40:47;;;;;;;19.52;8.05;;;8.10;99.90;;;;;;5025292;23;20050;-91
2021/12/11 22:43:20;;;;;;;19.33;8.98;;;8.10;99.90;;;;;;4942678;28;20057;-92
2021/12/11 22:49:55;;;;;;;20.30;9.30;;;8.10;99.90;;;;;;5715200;23;20048;-94
2021/12/11 22:53:35;;;;;;;21.80;10.23;;;8.10;99.90;;;;;;4942445;29;20032;-93
2021/12/11 23:02:16;;;;;;;23.65;8.43;;;8.00;99.90;;;;;;5418479;23;20055;-92
2021/12/11 23:11:10;;;;;;;19.63;7.25;;;7.90;99.90;;;;;;4906322;29;20002;-90
2021/12/11 23:13:56;;;;;;;12.38;8.55;;;7.90;99.90;;;;;;4890324;29;20127;-90
2021/12/11 23:16:30;;;;;;;14.70;7.13;;;7.80;99.90;;;;;;4882863;29;20037;-91
2021/12/11 23:19:20;;;;;;;14.27;7.28;;;7.80;99.90;;;;;;4882295;29;20061;-93
2021/12/11 23:22:33;;;;;;;15.15;8.13;;;7.80;99.90;;;;;;4885058;29;20061;-92
2021/12/11 23:25:44;;;;;;;15.77;7.20;;;7.80;99.90;;;;;;4883553;29;20041;-92
2021/12/11 23:28:19;;;;;;;21.88;7.63;;;7.80;99.90;;;;;;4811749;29;20133;-91
2021/12/11 23:30:54;;;;;;;14.30;7.07;;;7.80;99.90;;;;;;4808804;29;20103;-90
2021/12/11 23:33:41;;;;;;;13.25;6.95;;;7.80;99.90;;;;;;4812679;29;20047;-90
2021/12/11 23:36:34;;;;;;;13.52;5.88;;;7.80;99.90;;;;;;4812132;29;20525;-91
2021/12/11 23:39:20;;;;;;;14.20;6.95;;;7.80;99.90;;;;;;4812143;29;20062;-92
2021/12/11 23:42:05;;;;;;;14.00;5.90;;;7.70;99.90;;;;;;4832106;29;20026;-91
2021/12/11 23:44:41;;;;;;;16.08;6.82;;;7.70;99.90;;;;;;4831342;29;20043;-87
2021/12/11 23:47:19;;;;;;;14.00;6.20;;;7.70;99.90;;;;;;4829559;29;20072;-91
2021/12/11 23:49:50;;;;;;;9.57;5.35;;;7.70;99.90;;;;;;4836524;29;20037;-92
2021/12/11 23:52:23;;;;;;;10.07;5.28;;;7.70;99.90;;;;;;4829101;29;20465;-90
2021/12/11 23:54:53;;;;;;;9.80;5.28;;;7.70;99.90;;;;;;4828754;29;20037;-91
2021/12/11 23:57:26;;;;;;;11.38;4.90;;;7.70;99.90;;;;;;4828287;29;20055;-92
